sensor_id;sensor_type;location;lat;lon;timestamp;temperature;humidity
67899;DHT22;54699;51.796;10.956;2023-03-31T00:01:34;19.20;56.60
67899;DHT22;54699;51.796;10.956;2023-03-31T00:04:06;19.20;56.60
67899;DHT22;54699;51.796;10.956;2023-03-31T00:06:35;19.20;56.60
67899;DHT22;54699;51.796;10.956;2023-03-31T00:09:03;19.20;56.60
67899;DHT22;54699;51.796;10.956;2023-03-31T00:11:31;19.20;56.60
67899;DHT22;54699;51.796;10.956;2023-03-31T00:13:59;19.20;56.60
67899;DHT22;54699;51.796;10.956;2023-03-31T00:16:26;19.20;56.50
67899;DHT22;54699;51.796;10.956;2023-03-31T00:18:53;19.20;56.50
67899;DHT22;54699;51.796;10.956;2023-03-31T00:21:20;19.20;56.50
67899;DHT22;54699;51.796;10.956;2023-03-31T00:23:54;19.20;56.60
67899;DHT22;54699;51.796;10.956;2023-03-31T00:26:22;19.20;56.50
67899;DHT22;54699;51.796;10.956;2023-03-31T00:28:50;19.20;56.50
67899;DHT22;54699;51.796;10.956;2023-03-31T00:31:19;19.20;56.50
67899;DHT22;54699;51.796;10.956;2023-03-31T00:33:47;19.20;56.50
67899;DHT22;54699;51.796;10.956;2023-03-31T00:36:14;19.20;56.60
67899;DHT22;54699;51.796;10.956;2023-03-31T00:38:45;19.20;56.50
67899;DHT22;54699;51.796;10.956;2023-03-31T00:41:12;19.20;56.50
67899;DHT22;54699;51.796;10.956;2023-03-31T00:43:40;19.20;56.50
67899;DHT22;54699;51.796;10.956;2023-03-31T00:46:11;19.10;56.50
67899;DHT22;54699;51.796;10.956;2023-03-31T00:48:44;19.20;56.50
67899;DHT22;54699;51.796;10.956;2023-03-31T00:51:15;19.20;56.50
67899;DHT22;54699;51.796;10.956;2023-03-31T00:53:43;19.20;56.50
67899;DHT22;54699;51.796;10.956;2023-03-31T00:56:16;19.20;56.50
67899;DHT22;54699;51.796;10.956;2023-03-31T00:58:43;19.20;56.50
67899;DHT22;54699;51.796;10.956;2023-03-31T01:01:12;19.20;56.40
67899;DHT22;54699;51.796;10.956;2023-03-31T01:03:45;19.10;56.40
67899;DHT22;54699;51.796;10.956;2023-03-31T01:06:15;19.10;56.40
67899;DHT22;54699;51.796;10.956;2023-03-31T01:08:45;19.10;56.40
67899;DHT22;54699;51.796;10.956;2023-03-31T01:11:14;19.10;56.40
67899;DHT22;54699;51.796;10.956;2023-03-31T01:13:44;19.10;56.40
67899;DHT22;54699;51.796;10.956;2023-03-31T01:16:15;19.10;56.40
67899;DHT22;54699;51.796;10.956;2023-03-31T01:18:42;19.10;56.30
67899;DHT22;54699;51.796;10.956;2023-03-31T01:21:37;19.10;56.40
67899;DHT22;54699;51.796;10.956;2023-03-31T01:24:52;19.10;56.30
67899;DHT22;54699;51.796;10.956;2023-03-31T01:33:28;19.10;56.30
67899;DHT22;54699;51.796;10.956;2023-03-31T01:36:26;19.10;56.30
67899;DHT22;54699;51.796;10.956;2023-03-31T01:39:25;19.10;56.40
67899;DHT22;54699;51.796;10.956;2023-03-31T01:42:11;19.10;56.30
67899;DHT22;54699;51.796;10.956;2023-03-31T01:44:42;19.10;56.30
67899;DHT22;54699;51.796;10.956;2023-03-31T01:47:15;19.10;56.30
67899;DHT22;54699;51.796;10.956;2023-03-31T01:49:50;19.10;56.30
67899;DHT22;54699;51.796;10.956;2023-03-31T01:52:24;19.10;56.30
67899;DHT22;54699;51.796;10.956;2023-03-31T01:55:00;19.10;56.30
67899;DHT22;54699;51.796;10.956;2023-03-31T01:57:34;19.10;56.40
67899;DHT22;54699;51.796;10.956;2023-03-31T02:00:05;19.10;56.30
67899;DHT22;54699;51.796;10.956;2023-03-31T02:02:37;19.10;56.40
67899;DHT22;54699;51.796;10.956;2023-03-31T02:05:09;19.00;56.30
67899;DHT22;54699;51.796;10.956;2023-03-31T02:07:42;19.00;56.40
67899;DHT22;54699;51.796;10.956;2023-03-31T02:10:14;19.00;56.40
67899;DHT22;54699;51.796;10.956;2023-03-31T02:12:44;19.00;56.40
67899;DHT22;54699;51.796;10.956;2023-03-31T02:15:13;19.00;56.40
67899;DHT22;54699;51.796;10.956;2023-03-31T02:17:47;19.00;56.30
67899;DHT22;54699;51.796;10.956;2023-03-31T02:20:17;19.00;56.40
67899;DHT22;54699;51.796;10.956;2023-03-31T02:22:47;19.00;56.40
67899;DHT22;54699;51.796;10.956;2023-03-31T02:25:18;19.00;56.40
67899;DHT22;54699;51.796;10.956;2023-03-31T02:27:52;19.00;56.30
67899;DHT22;54699;51.796;10.956;2023-03-31T02:30:22;19.00;56.40
67899;DHT22;54699;51.796;10.956;2023-03-31T02:32:53;19.00;56.30
67899;DHT22;54699;51.796;10.956;2023-03-31T02:35:20;19.00;56.40
67899;DHT22;54699;51.796;10.956;2023-03-31T02:37:49;19.00;56.40
67899;DHT22;54699;51.796;10.956;2023-03-31T02:40:18;19.00;56.40
67899;DHT22;54699;51.796;10.956;2023-03-31T02:42:46;19.00;56.30
67899;DHT22;54699;51.796;10.956;2023-03-31T02:45:38;19.00;56.40
67899;DHT22;54699;51.796;10.956;2023-03-31T02:48:08;19.00;56.30
67899;DHT22;54699;51.796;10.956;2023-03-31T02:50:39;19.00;56.30
67899;DHT22;54699;51.796;10.956;2023-03-31T02:53:22;19.00;56.40
67899;DHT22;54699;51.796;10.956;2023-03-31T02:55:59;19.00;56.30
67899;DHT22;54699;51.796;10.956;2023-03-31T02:58:44;19.00;56.30
67899;DHT22;54699;51.796;10.956;2023-03-31T03:01:29;18.90;57.20
67899;DHT22;54699;51.796;10.956;2023-03-31T03:04:10;18.90;56.60
67899;DHT22;54699;51.796;10.956;2023-03-31T03:06:54;18.90;56.30
67899;DHT22;54699;51.796;10.956;2023-03-31T03:09:33;18.90;56.30
67899;DHT22;54699;51.796;10.956;2023-03-31T03:12:07;18.90;56.30
67899;DHT22;54699;51.796;10.956;2023-03-31T03:14:39;18.90;56.40
67899;DHT22;54699;51.796;10.956;2023-03-31T03:17:15;18.90;56.30
67899;DHT22;54699;51.796;10.956;2023-03-31T03:19:49;18.90;56.30
67899;DHT22;54699;51.796;10.956;2023-03-31T03:22:19;19.00;56.30
67899;DHT22;54699;51.796;10.956;2023-03-31T03:24:46;18.90;56.30
67899;DHT22;54699;51.796;10.956;2023-03-31T03:27:13;18.90;56.30
67899;DHT22;54699;51.796;10.956;2023-03-31T03:29:40;18.90;56.20
67899;DHT22;54699;51.796;10.956;2023-03-31T03:32:08;18.90;56.20
67899;DHT22;54699;51.796;10.956;2023-03-31T03:34:37;18.90;56.20
67899;DHT22;54699;51.796;10.956;2023-03-31T03:37:07;18.90;56.30
67899;DHT22;54699;51.796;10.956;2023-03-31T03:39:34;18.90;56.20
67899;DHT22;54699;51.796;10.956;2023-03-31T03:42:01;18.90;56.20
67899;DHT22;54699;51.796;10.956;2023-03-31T03:44:29;19.00;56.30
67899;DHT22;54699;51.796;10.956;2023-03-31T03:46:56;18.90;57.10
67899;DHT22;54699;51.796;10.956;2023-03-31T03:49:23;19.00;56.30
67899;DHT22;54699;51.796;10.956;2023-03-31T03:51:51;18.90;56.20
67899;DHT22;54699;51.796;10.956;2023-03-31T03:54:18;18.90;56.20
67899;DHT22;54699;51.796;10.956;2023-03-31T03:56:45;18.90;56.20
67899;DHT22;54699;51.796;10.956;2023-03-31T03:59:12;18.90;56.30
67899;DHT22;54699;51.796;10.956;2023-03-31T04:01:39;18.90;56.30
67899;DHT22;54699;51.796;10.956;2023-03-31T04:04:06;18.90;56.30
67899;DHT22;54699;51.796;10.956;2023-03-31T04:06:33;18.90;56.30
67899;DHT22;54699;51.796;10.956;2023-03-31T04:09:02;18.90;56.30
67899;DHT22;54699;51.796;10.956;2023-03-31T04:11:30;18.90;56.30
67899;DHT22;54699;51.796;10.956;2023-03-31T04:13:57;18.90;56.30
67899;DHT22;54699;51.796;10.956;2023-03-31T04:16:24;18.90;56.30
67899;DHT22;54699;51.796;10.956;2023-03-31T04:18:53;18.90;56.30
67899;DHT22;54699;51.796;10.956;2023-03-31T04:21:23;18.90;56.20
67899;DHT22;54699;51.796;10.956;2023-03-31T04:23:51;18.90;56.20
67899;DHT22;54699;51.796;10.956;2023-03-31T04:26:28;18.90;56.30
67899;DHT22;54699;51.796;10.956;2023-03-31T04:29:03;18.90;56.30
67899;DHT22;54699;51.796;10.956;2023-03-31T04:31:31;18.90;56.20
67899;DHT22;54699;51.796;10.956;2023-03-31T04:33:58;18.90;56.20
67899;DHT22;54699;51.796;10.956;2023-03-31T04:36:27;18.90;56.20
67899;DHT22;54699;51.796;10.956;2023-03-31T04:38:56;18.90;55.90
67899;DHT22;54699;51.796;10.956;2023-03-31T04:41:23;18.90;56.20
67899;DHT22;54699;51.796;10.956;2023-03-31T04:43:53;18.80;55.90
67899;DHT22;54699;51.796;10.956;2023-03-31T04:46:20;18.80;56.20
67899;DHT22;54699;51.796;10.956;2023-03-31T04:48:48;18.80;56.40
67899;DHT22;54699;51.796;10.956;2023-03-31T04:51:15;18.80;55.70
67899;DHT22;54699;51.796;10.956;2023-03-31T04:53:44;18.80;55.90
67899;DHT22;54699;51.796;10.956;2023-03-31T04:56:17;18.80;55.50
67899;DHT22;54699;51.796;10.956;2023-03-31T04:59:20;18.80;55.20
67899;DHT22;54699;51.796;10.956;2023-03-31T05:01:47;18.70;55.00
67899;DHT22;54699;51.796;10.956;2023-03-31T05:04:14;18.60;55.80
67899;DHT22;54699;51.796;10.956;2023-03-31T05:06:41;18.70;54.90
67899;DHT22;54699;51.796;10.956;2023-03-31T05:09:10;18.80;55.50
67899;DHT22;54699;51.796;10.956;2023-03-31T05:11:40;18.80;55.50
67899;DHT22;54699;51.796;10.956;2023-03-31T05:14:08;18.70;55.40
67899;DHT22;54699;51.796;10.956;2023-03-31T05:16:40;18.70;53.60
67899;DHT22;54699;51.796;10.956;2023-03-31T05:19:19;18.70;54.50
67899;DHT22;54699;51.796;10.956;2023-03-31T05:21:47;18.70;55.50
67899;DHT22;54699;51.796;10.956;2023-03-31T05:24:18;18.70;54.60
67899;DHT22;54699;51.796;10.956;2023-03-31T05:26:45;18.70;55.20
67899;DHT22;54699;51.796;10.956;2023-03-31T05:29:20;18.70;55.40
67899;DHT22;54699;51.796;10.956;2023-03-31T05:31:50;18.70;55.50
67899;DHT22;54699;51.796;10.956;2023-03-31T05:34:18;18.80;55.20
67899;DHT22;54699;51.796;10.956;2023-03-31T05:36:52;18.80;54.80
67899;DHT22;54699;51.796;10.956;2023-03-31T05:39:19;18.80;55.20
67899;DHT22;54699;51.796;10.956;2023-03-31T05:41:50;18.80;55.20
67899;DHT22;54699;51.796;10.956;2023-03-31T05:44:17;18.80;55.30
67899;DHT22;54699;51.796;10.956;2023-03-31T05:46:45;18.80;54.60
67899;DHT22;54699;51.796;10.956;2023-03-31T05:49:20;18.80;55.10
67899;DHT22;54699;51.796;10.956;2023-03-31T05:51:53;18.80;54.60
67899;DHT22;54699;51.796;10.956;2023-03-31T05:54:20;18.80;53.90
67899;DHT22;54699;51.796;10.956;2023-03-31T05:56:48;18.80;54.70
67899;DHT22;54699;51.796;10.956;2023-03-31T05:59:21;18.80;54.50
67899;DHT22;54699;51.796;10.956;2023-03-31T06:01:49;18.80;54.80
67899;DHT22;54699;51.796;10.956;2023-03-31T06:04:18;18.70;54.20
67899;DHT22;54699;51.796;10.956;2023-03-31T06:06:45;18.80;54.30
67899;DHT22;54699;51.796;10.956;2023-03-31T06:09:14;18.70;54.30
67899;DHT22;54699;51.796;10.956;2023-03-31T06:11:44;18.80;54.40
67899;DHT22;54699;51.796;10.956;2023-03-31T06:14:11;18.80;54.70
67899;DHT22;54699;51.796;10.956;2023-03-31T06:16:38;18.80;53.80
67899;DHT22;54699;51.796;10.956;2023-03-31T06:19:05;18.80;54.50
67899;DHT22;54699;51.796;10.956;2023-03-31T06:21:34;18.80;54.80
67899;DHT22;54699;51.796;10.956;2023-03-31T06:24:04;18.80;54.40
67899;DHT22;54699;51.796;10.956;2023-03-31T06:26:33;18.80;54.80
67899;DHT22;54699;51.796;10.956;2023-03-31T06:29:00;18.80;54.60
67899;DHT22;54699;51.796;10.956;2023-03-31T06:31:27;18.80;54.40
67899;DHT22;54699;51.796;10.956;2023-03-31T06:33:53;18.80;54.60
67899;DHT22;54699;51.796;10.956;2023-03-31T06:36:20;18.80;54.30
67899;DHT22;54699;51.796;10.956;2023-03-31T06:38:49;18.80;54.40
67899;DHT22;54699;51.796;10.956;2023-03-31T06:41:16;18.90;54.50
67899;DHT22;54699;51.796;10.956;2023-03-31T06:43:44;18.90;54.40
67899;DHT22;54699;51.796;10.956;2023-03-31T06:46:12;18.90;54.50
67899;DHT22;54699;51.796;10.956;2023-03-31T06:48:40;18.80;54.50
67899;DHT22;54699;51.796;10.956;2023-03-31T06:51:08;18.90;54.30
67899;DHT22;54699;51.796;10.956;2023-03-31T06:53:35;18.90;54.40
67899;DHT22;54699;51.796;10.956;2023-03-31T06:56:06;18.90;54.40
67899;DHT22;54699;51.796;10.956;2023-03-31T06:58:33;18.90;54.40
67899;DHT22;54699;51.796;10.956;2023-03-31T07:01:01;18.90;54.40
67899;DHT22;54699;51.796;10.956;2023-03-31T07:03:29;18.90;54.20
67899;DHT22;54699;51.796;10.956;2023-03-31T07:05:57;18.90;54.20
67899;DHT22;54699;51.796;10.956;2023-03-31T07:08:28;18.90;54.30
67899;DHT22;54699;51.796;10.956;2023-03-31T07:10:55;18.90;54.20
67899;DHT22;54699;51.796;10.956;2023-03-31T07:13:25;18.90;55.20
67899;DHT22;54699;51.796;10.956;2023-03-31T07:15:53;19.00;54.30
67899;DHT22;54699;51.796;10.956;2023-03-31T07:18:20;18.90;54.50
67899;DHT22;54699;51.796;10.956;2023-03-31T07:20:50;18.90;54.40
67899;DHT22;54699;51.796;10.956;2023-03-31T07:23:18;18.90;54.50
67899;DHT22;54699;51.796;10.956;2023-03-31T07:25:48;19.00;54.50
67899;DHT22;54699;51.796;10.956;2023-03-31T07:28:15;19.00;54.40
67899;DHT22;54699;51.796;10.956;2023-03-31T07:30:44;19.00;54.10
67899;DHT22;54699;51.796;10.956;2023-03-31T07:33:12;18.90;53.90
67899;DHT22;54699;51.796;10.956;2023-03-31T07:35:42;18.90;54.00
67899;DHT22;54699;51.796;10.956;2023-03-31T07:38:11;18.90;54.90
67899;DHT22;54699;51.796;10.956;2023-03-31T07:40:39;19.00;55.00
67899;DHT22;54699;51.796;10.956;2023-03-31T07:43:09;19.10;55.10
67899;DHT22;54699;51.796;10.956;2023-03-31T07:45:38;19.10;54.50
67899;DHT22;54699;51.796;10.956;2023-03-31T07:51:35;19.20;54.60
67899;DHT22;54699;51.796;10.956;2023-03-31T07:54:25;19.30;54.90
67899;DHT22;54699;51.796;10.956;2023-03-31T07:56:53;19.40;55.00
67899;DHT22;54699;51.796;10.956;2023-03-31T07:59:41;19.40;55.10
67899;DHT22;54699;51.796;10.956;2023-03-31T08:02:19;19.40;55.20
67899;DHT22;54699;51.796;10.956;2023-03-31T08:04:54;19.50;54.70
67899;DHT22;54699;51.796;10.956;2023-03-31T08:07:23;19.50;55.00
67899;DHT22;54699;51.796;10.956;2023-03-31T08:09:57;19.50;54.70
67899;DHT22;54699;51.796;10.956;2023-03-31T08:12:23;19.40;52.60
67899;DHT22;54699;51.796;10.956;2023-03-31T08:14:52;19.40;53.00
67899;DHT22;54699;51.796;10.956;2023-03-31T08:17:22;19.40;53.70
67899;DHT22;54699;51.796;10.956;2023-03-31T08:19:49;19.40;53.70
67899;DHT22;54699;51.796;10.956;2023-03-31T08:22:16;19.40;54.10
67899;DHT22;54699;51.796;10.956;2023-03-31T08:24:44;19.40;54.50
67899;DHT22;54699;51.796;10.956;2023-03-31T08:29:57;19.30;53.70
67899;DHT22;54699;51.796;10.956;2023-03-31T08:32:29;19.30;54.90
67899;DHT22;54699;51.796;10.956;2023-03-31T08:34:57;19.30;54.80
67899;DHT22;54699;51.796;10.956;2023-03-31T08:37:34;19.30;53.20
67899;DHT22;54699;51.796;10.956;2023-03-31T08:40:03;19.30;54.60
67899;DHT22;54699;51.796;10.956;2023-03-31T08:42:35;19.30;54.60
67899;DHT22;54699;51.796;10.956;2023-03-31T08:45:06;19.30;54.40
67899;DHT22;54699;51.796;10.956;2023-03-31T08:47:41;19.30;54.90
67899;DHT22;54699;51.796;10.956;2023-03-31T08:50:11;19.30;54.90
67899;DHT22;54699;51.796;10.956;2023-03-31T08:52:44;19.30;55.00
67899;DHT22;54699;51.796;10.956;2023-03-31T08:55:21;19.30;55.40
67899;DHT22;54699;51.796;10.956;2023-03-31T08:57:57;19.30;55.40
67899;DHT22;54699;51.796;10.956;2023-03-31T09:00:28;19.30;55.40
67899;DHT22;54699;51.796;10.956;2023-03-31T09:03:04;19.20;55.30
67899;DHT22;54699;51.796;10.956;2023-03-31T09:05:45;19.20;55.20
67899;DHT22;54699;51.796;10.956;2023-03-31T09:08:24;19.20;55.00
67899;DHT22;54699;51.796;10.956;2023-03-31T09:11:05;19.30;55.30
67899;DHT22;54699;51.796;10.956;2023-03-31T09:16:37;19.20;55.60
67899;DHT22;54699;51.796;10.956;2023-03-31T09:19:13;19.20;55.10
67899;DHT22;54699;51.796;10.956;2023-03-31T09:21:44;19.20;55.10
67899;DHT22;54699;51.796;10.956;2023-03-31T09:24:17;19.20;55.20
67899;DHT22;54699;51.796;10.956;2023-03-31T09:26:49;19.20;55.10
67899;DHT22;54699;51.796;10.956;2023-03-31T09:29:21;19.20;54.80
67899;DHT22;54699;51.796;10.956;2023-03-31T09:31:54;19.20;54.30
67899;DHT22;54699;51.796;10.956;2023-03-31T09:34:30;19.20;53.40
67899;DHT22;54699;51.796;10.956;2023-03-31T09:37:08;19.30;55.10
67899;DHT22;54699;51.796;10.956;2023-03-31T09:39:41;19.30;54.20
67899;DHT22;54699;51.796;10.956;2023-03-31T09:42:27;19.30;54.10
67899;DHT22;54699;51.796;10.956;2023-03-31T09:44:57;19.40;54.60
67899;DHT22;54699;51.796;10.956;2023-03-31T09:47:26;19.40;53.90
67899;DHT22;54699;51.796;10.956;2023-03-31T09:50:03;19.50;53.70
67899;DHT22;54699;51.796;10.956;2023-03-31T09:52:39;19.50;54.00
67899;DHT22;54699;51.796;10.956;2023-03-31T09:55:15;19.60;54.90
67899;DHT22;54699;51.796;10.956;2023-03-31T09:57:50;19.60;55.00
67899;DHT22;54699;51.796;10.956;2023-03-31T10:00:21;19.70;55.00
67899;DHT22;54699;51.796;10.956;2023-03-31T10:02:50;19.70;54.70
67899;DHT22;54699;51.796;10.956;2023-03-31T10:05:27;19.70;54.30
67899;DHT22;54699;51.796;10.956;2023-03-31T10:08:20;19.70;54.10
67899;DHT22;54699;51.796;10.956;2023-03-31T10:10:51;19.60;53.50
67899;DHT22;54699;51.796;10.956;2023-03-31T10:13:23;19.60;53.40
67899;DHT22;54699;51.796;10.956;2023-03-31T10:15:54;19.50;53.20
67899;DHT22;54699;51.796;10.956;2023-03-31T10:18:30;19.50;50.90
67899;DHT22;54699;51.796;10.956;2023-03-31T10:21:01;19.50;49.80
67899;DHT22;54699;51.796;10.956;2023-03-31T10:23:31;19.40;51.00
67899;DHT22;54699;51.796;10.956;2023-03-31T10:25:59;19.40;53.00
67899;DHT22;54699;51.796;10.956;2023-03-31T10:28:32;19.40;53.10
67899;DHT22;54699;51.796;10.956;2023-03-31T10:31:02;19.40;53.90
67899;DHT22;54699;51.796;10.956;2023-03-31T10:33:30;19.40;53.80
67899;DHT22;54699;51.796;10.956;2023-03-31T10:36:00;19.30;54.20
67899;DHT22;54699;51.796;10.956;2023-03-31T10:38:33;19.30;53.40
67899;DHT22;54699;51.796;10.956;2023-03-31T10:41:04;19.30;54.30
67899;DHT22;54699;51.796;10.956;2023-03-31T10:43:34;19.40;54.30
67899;DHT22;54699;51.796;10.956;2023-03-31T10:46:05;19.30;54.10
67899;DHT22;54699;51.796;10.956;2023-03-31T10:48:33;19.30;53.60
67899;DHT22;54699;51.796;10.956;2023-03-31T10:51:03;19.30;54.00
67899;DHT22;54699;51.796;10.956;2023-03-31T10:53:40;19.30;54.30
67899;DHT22;54699;51.796;10.956;2023-03-31T10:56:22;19.30;54.00
67899;DHT22;54699;51.796;10.956;2023-03-31T10:59:09;19.30;54.20
67899;DHT22;54699;51.796;10.956;2023-03-31T11:01:48;19.10;54.30
67899;DHT22;54699;51.796;10.956;2023-03-31T11:04:29;19.20;54.60
67899;DHT22;54699;51.796;10.956;2023-03-31T11:07:20;19.20;54.20
67899;DHT22;54699;51.796;10.956;2023-03-31T11:10:00;19.20;54.00
67899;DHT22;54699;51.796;10.956;2023-03-31T11:12:37;19.20;54.00
67899;DHT22;54699;51.796;10.956;2023-03-31T11:15:12;19.20;54.40
67899;DHT22;54699;51.796;10.956;2023-03-31T11:17:49;19.20;53.60
67899;DHT22;54699;51.796;10.956;2023-03-31T11:20:30;19.20;54.30
67899;DHT22;54699;51.796;10.956;2023-03-31T11:23:07;19.20;54.00
67899;DHT22;54699;51.796;10.956;2023-03-31T11:25:44;19.20;53.90
67899;DHT22;54699;51.796;10.956;2023-03-31T11:34:07;19.30;54.60
67899;DHT22;54699;51.796;10.956;2023-03-31T11:39:59;19.30;54.80
67899;DHT22;54699;51.796;10.956;2023-03-31T11:42:38;19.30;54.60
67899;DHT22;54699;51.796;10.956;2023-03-31T11:45:13;19.20;54.70
67899;DHT22;54699;51.796;10.956;2023-03-31T11:47:55;19.20;55.10
67899;DHT22;54699;51.796;10.956;2023-03-31T11:50:29;19.30;55.20
67899;DHT22;54699;51.796;10.956;2023-03-31T11:53:04;19.20;55.00
67899;DHT22;54699;51.796;10.956;2023-03-31T11:55:33;19.30;54.80
67899;DHT22;54699;51.796;10.956;2023-03-31T11:58:03;19.20;54.30
67899;DHT22;54699;51.796;10.956;2023-03-31T12:00:33;19.30;54.60
67899;DHT22;54699;51.796;10.956;2023-03-31T12:03:07;19.30;54.00
67899;DHT22;54699;51.796;10.956;2023-03-31T12:05:39;19.30;54.40
67899;DHT22;54699;51.796;10.956;2023-03-31T12:08:11;19.30;54.10
67899;DHT22;54699;51.796;10.956;2023-03-31T12:10:42;19.30;54.10
67899;DHT22;54699;51.796;10.956;2023-03-31T12:16:08;19.30;54.20
67899;DHT22;54699;51.796;10.956;2023-03-31T12:18:41;19.30;54.70
67899;DHT22;54699;51.796;10.956;2023-03-31T12:21:17;19.30;54.70
67899;DHT22;54699;51.796;10.956;2023-03-31T12:23:45;19.40;54.20
67899;DHT22;54699;51.796;10.956;2023-03-31T12:26:26;19.30;54.40
67899;DHT22;54699;51.796;10.956;2023-03-31T12:29:02;19.30;54.40
67899;DHT22;54699;51.796;10.956;2023-03-31T12:31:33;19.30;55.00
67899;DHT22;54699;51.796;10.956;2023-03-31T12:34:06;19.30;54.10
67899;DHT22;54699;51.796;10.956;2023-03-31T12:36:41;19.30;52.40
67899;DHT22;54699;51.796;10.956;2023-03-31T12:39:22;19.30;54.40
67899;DHT22;54699;51.796;10.956;2023-03-31T12:42:00;19.30;53.20
67899;DHT22;54699;51.796;10.956;2023-03-31T12:44:43;19.40;51.50
67899;DHT22;54699;51.796;10.956;2023-03-31T12:47:27;19.30;53.00
67899;DHT22;54699;51.796;10.956;2023-03-31T12:53:03;19.30;52.50
67899;DHT22;54699;51.796;10.956;2023-03-31T12:55:39;19.30;53.40
67899;DHT22;54699;51.796;10.956;2023-03-31T13:01:09;19.40;50.70
67899;DHT22;54699;51.796;10.956;2023-03-31T13:03:44;19.40;53.60
67899;DHT22;54699;51.796;10.956;2023-03-31T13:06:45;19.40;53.20
67899;DHT22;54699;51.796;10.956;2023-03-31T13:12:07;19.40;53.20
67899;DHT22;54699;51.796;10.956;2023-03-31T13:14:38;19.40;52.00
67899;DHT22;54699;51.796;10.956;2023-03-31T13:17:11;19.40;51.40
67899;DHT22;54699;51.796;10.956;2023-03-31T13:19:45;19.40;51.50
67899;DHT22;54699;51.796;10.956;2023-03-31T13:22:27;19.40;49.90
67899;DHT22;54699;51.796;10.956;2023-03-31T13:28:15;19.50;50.90
67899;DHT22;54699;51.796;10.956;2023-03-31T13:30:51;19.50;50.30
67899;DHT22;54699;51.796;10.956;2023-03-31T13:33:25;19.50;52.50
67899;DHT22;54699;51.796;10.956;2023-03-31T13:36:03;19.60;52.70
67899;DHT22;54699;51.796;10.956;2023-03-31T13:38:49;19.60;52.70
67899;DHT22;54699;51.796;10.956;2023-03-31T13:41:29;19.60;51.90
67899;DHT22;54699;51.796;10.956;2023-03-31T13:50:18;19.70;53.40
67899;DHT22;54699;51.796;10.956;2023-03-31T13:52:58;19.70;52.60
67899;DHT22;54699;51.796;10.956;2023-03-31T13:55:55;19.70;53.20
67899;DHT22;54699;51.796;10.956;2023-03-31T13:58:36;19.70;51.80
67899;DHT22;54699;51.796;10.956;2023-03-31T14:01:16;19.70;52.10
67899;DHT22;54699;51.796;10.956;2023-03-31T14:04:01;19.70;52.40
67899;DHT22;54699;51.796;10.956;2023-03-31T14:06:43;19.70;51.20
67899;DHT22;54699;51.796;10.956;2023-03-31T14:09:18;19.70;52.40
67899;DHT22;54699;51.796;10.956;2023-03-31T14:11:51;19.70;51.30
67899;DHT22;54699;51.796;10.956;2023-03-31T14:14:19;19.70;52.60
67899;DHT22;54699;51.796;10.956;2023-03-31T14:16:49;19.70;53.30
67899;DHT22;54699;51.796;10.956;2023-03-31T14:22:15;19.70;50.40
67899;DHT22;54699;51.796;10.956;2023-03-31T14:24:49;19.70;52.80
67899;DHT22;54699;51.796;10.956;2023-03-31T14:27:33;19.70;51.80
67899;DHT22;54699;51.796;10.956;2023-03-31T14:30:14;19.60;52.90
67899;DHT22;54699;51.796;10.956;2023-03-31T14:32:54;19.70;52.60
67899;DHT22;54699;51.796;10.956;2023-03-31T14:35:32;19.60;52.60
67899;DHT22;54699;51.796;10.956;2023-03-31T14:38:03;19.60;51.60
67899;DHT22;54699;51.796;10.956;2023-03-31T14:40:41;19.60;52.90
67899;DHT22;54699;51.796;10.956;2023-03-31T14:43:20;19.60;58.60
67899;DHT22;54699;51.796;10.956;2023-03-31T14:45:55;19.60;60.20
67899;DHT22;54699;51.796;10.956;2023-03-31T14:48:23;19.60;64.00
67899;DHT22;54699;51.796;10.956;2023-03-31T14:50:55;19.50;62.20
67899;DHT22;54699;51.796;10.956;2023-03-31T14:53:24;19.50;62.20
67899;DHT22;54699;51.796;10.956;2023-03-31T14:55:54;19.50;62.10
67899;DHT22;54699;51.796;10.956;2023-03-31T14:58:30;19.50;62.90
67899;DHT22;54699;51.796;10.956;2023-03-31T15:01:00;19.50;63.90
67899;DHT22;54699;51.796;10.956;2023-03-31T15:03:31;19.50;63.30
67899;DHT22;54699;51.796;10.956;2023-03-31T15:06:00;19.50;63.00
67899;DHT22;54699;51.796;10.956;2023-03-31T15:08:28;19.50;62.50
67899;DHT22;54699;51.796;10.956;2023-03-31T15:10:57;19.50;63.00
67899;DHT22;54699;51.796;10.956;2023-03-31T15:13:32;19.50;62.40
67899;DHT22;54699;51.796;10.956;2023-03-31T15:18:46;19.40;62.50
67899;DHT22;54699;51.796;10.956;2023-03-31T15:21:19;19.40;61.40
67899;DHT22;54699;51.796;10.956;2023-03-31T15:23:47;19.40;61.40
67899;DHT22;54699;51.796;10.956;2023-03-31T15:26:17;19.40;60.90
67899;DHT22;54699;51.796;10.956;2023-03-31T15:28:49;19.40;61.20
67899;DHT22;54699;51.796;10.956;2023-03-31T15:31:19;19.40;60.80
67899;DHT22;54699;51.796;10.956;2023-03-31T15:33:47;19.40;60.60
67899;DHT22;54699;51.796;10.956;2023-03-31T15:36:14;19.40;60.90
67899;DHT22;54699;51.796;10.956;2023-03-31T15:38:42;19.40;59.60
67899;DHT22;54699;51.796;10.956;2023-03-31T15:41:10;19.40;59.70
67899;DHT22;54699;51.796;10.956;2023-03-31T15:43:44;19.40;60.00
67899;DHT22;54699;51.796;10.956;2023-03-31T15:46:17;19.40;59.60
67899;DHT22;54699;51.796;10.956;2023-03-31T15:48:49;19.40;59.40
67899;DHT22;54699;51.796;10.956;2023-03-31T15:51:19;19.40;59.20
67899;DHT22;54699;51.796;10.956;2023-03-31T15:53:52;19.40;59.10
67899;DHT22;54699;51.796;10.956;2023-03-31T15:56:23;19.40;59.10
67899;DHT22;54699;51.796;10.956;2023-03-31T15:58:55;19.40;58.60
67899;DHT22;54699;51.796;10.956;2023-03-31T16:01:27;19.40;58.50
67899;DHT22;54699;51.796;10.956;2023-03-31T16:03:57;19.40;58.60
67899;DHT22;54699;51.796;10.956;2023-03-31T16:06:28;19.40;58.40
67899;DHT22;54699;51.796;10.956;2023-03-31T16:09:03;19.40;58.20
67899;DHT22;54699;51.796;10.956;2023-03-31T16:11:43;19.40;58.30
67899;DHT22;54699;51.796;10.956;2023-03-31T16:14:14;19.30;58.40
67899;DHT22;54699;51.796;10.956;2023-03-31T16:16:53;19.30;58.40
67899;DHT22;54699;51.796;10.956;2023-03-31T16:19:23;19.30;58.50
67899;DHT22;54699;51.796;10.956;2023-03-31T16:21:54;19.30;58.50
67899;DHT22;54699;51.796;10.956;2023-03-31T16:24:29;19.30;58.40
67899;DHT22;54699;51.796;10.956;2023-03-31T16:26:58;19.30;58.40
67899;DHT22;54699;51.796;10.956;2023-03-31T16:29:30;19.30;58.40
67899;DHT22;54699;51.796;10.956;2023-03-31T16:32:09;19.30;58.60
67899;DHT22;54699;51.796;10.956;2023-03-31T16:34:52;19.30;58.60
67899;DHT22;54699;51.796;10.956;2023-03-31T16:37:24;19.30;58.70
67899;DHT22;54699;51.796;10.956;2023-03-31T16:39:52;19.30;58.80